createdAt,value
2023-09-04T00:00:17.093Z,12.10
2023-09-04T00:01:17.095Z,13.00
2023-09-04T00:02:17.020Z,12.10
2023-09-04T00:03:17.012Z,12.90
2023-09-04T00:04:17.089Z,13.50
2023-09-04T00:05:16.985Z,12.00
2023-09-04T00:06:17.017Z,11.60
2023-09-04T00:07:16.995Z,12.60
2023-09-04T00:08:16.979Z,13.10
2023-09-04T00:09:16.980Z,12.30
2023-09-04T00:10:16.991Z,12.80
2023-09-04T00:11:16.930Z,11.20
2023-09-04T00:12:16.923Z,11.30
2023-09-04T00:13:16.938Z,13.50
2023-09-04T00:14:16.924Z,13.60
2023-09-04T00:15:16.946Z,13.00
2023-09-04T00:16:16.905Z,11.80
2023-09-04T00:17:16.864Z,11.80
2023-09-04T00:18:16.842Z,12.90
2023-09-04T00:19:16.862Z,15.10
2023-09-04T00:20:16.909Z,15.40
2023-09-04T00:21:16.895Z,12.30
2023-09-04T00:22:16.892Z,13.20
2023-09-04T00:23:16.813Z,12.50
2023-09-04T00:24:16.812Z,11.40
2023-09-04T00:25:16.801Z,12.90
2023-09-04T00:26:16.821Z,12.20
2023-09-04T00:27:16.751Z,12.10
2023-09-04T00:28:16.765Z,12.90
2023-09-04T00:29:16.745Z,11.80
2023-09-04T00:30:16.755Z,14.30
2023-09-04T00:31:16.759Z,11.90
2023-09-04T00:32:16.744Z,11.10
2023-09-04T00:33:16.782Z,13.50
2023-09-04T00:34:16.690Z,12.00
2023-09-04T00:35:16.671Z,14.90
2023-09-04T00:36:16.659Z,12.40
2023-09-04T00:37:16.649Z,12.60
2023-09-04T00:38:16.690Z,12.80
2023-09-04T00:39:16.629Z,11.90
2023-09-04T00:40:16.643Z,12.90
2023-09-04T00:41:16.593Z,14.20
2023-09-04T00:42:16.640Z,11.60
2023-09-04T00:43:16.618Z,14.30
2023-09-04T00:44:16.587Z,14.90
2023-09-04T00:45:16.556Z,13.50
2023-09-04T00:46:16.638Z,14.00
2023-09-04T00:47:16.542Z,12.40
2023-09-04T00:48:16.547Z,13.70
2023-09-04T00:49:16.586Z,12.90
2023-09-04T00:50:16.489Z,11.90
2023-09-04T00:51:16.475Z,12.00
2023-09-04T00:52:16.482Z,11.50
2023-09-04T00:53:16.497Z,12.10
2023-09-04T00:54:16.487Z,13.10
2023-09-04T00:55:16.463Z,13.20
2023-09-04T00:56:16.489Z,14.50
2023-09-04T00:57:16.424Z,14.90
2023-09-04T00:58:16.419Z,14.70
2023-09-04T00:59:16.442Z,12.30
2023-09-04T01:00:16.476Z,12.10
2023-09-04T01:01:16.452Z,13.70
2023-09-04T01:02:16.420Z,14.30
2023-09-04T01:03:16.384Z,13.30
2023-09-04T01:04:16.385Z,12.40
2023-09-04T01:05:16.357Z,11.90
2023-09-04T01:06:16.337Z,13.30
2023-09-04T01:07:16.395Z,12.30
2023-09-04T01:08:16.309Z,14.40
2023-09-04T01:09:16.358Z,12.90
2023-09-04T01:10:16.303Z,14.80
2023-09-04T01:11:16.316Z,13.20
2023-09-04T01:12:16.268Z,12.00
2023-09-04T01:13:16.302Z,12.00
2023-09-04T01:14:16.284Z,12.60
2023-09-04T01:15:16.253Z,12.00
2023-09-04T01:16:16.317Z,12.50
2023-09-04T01:17:16.207Z,14.30
2023-09-04T01:18:16.392Z,12.80
2023-09-04T01:19:16.273Z,11.80
2023-09-04T01:20:16.220Z,13.30
2023-09-04T01:21:16.246Z,12.80
2023-09-04T01:22:16.253Z,11.90
2023-09-04T01:23:16.175Z,10.70
2023-09-04T01:24:16.164Z,12.60
2023-09-04T01:25:16.175Z,13.60
2023-09-04T01:26:16.156Z,12.80
2023-09-04T01:27:16.150Z,12.50
2023-09-04T01:28:16.136Z,12.00
2023-09-04T01:29:16.102Z,12.40
2023-09-04T01:30:16.144Z,12.20
2023-09-04T01:31:16.185Z,12.20
2023-09-04T01:32:16.104Z,12.20
2023-09-04T01:33:16.064Z,12.00
2023-09-04T01:34:16.042Z,11.60
2023-09-04T01:35:16.018Z,11.70
2023-09-04T01:36:16.038Z,12.30
2023-09-04T01:37:16.026Z,12.80
2023-09-04T01:38:16.037Z,14.30
2023-09-04T01:39:15.992Z,12.80
2023-09-04T01:40:16.015Z,11.80
2023-09-04T01:41:15.957Z,11.60
2023-09-04T01:42:15.962Z,10.70
2023-09-04T01:43:15.934Z,13.00
2023-09-04T01:44:15.937Z,12.40
2023-09-04T01:45:15.927Z,12.60
2023-09-04T01:46:15.996Z,13.50
2023-09-04T01:47:15.944Z,13.00
2023-09-04T01:48:15.902Z,11.00
2023-09-04T01:49:15.876Z,10.90
2023-09-04T01:50:15.877Z,12.20
2023-09-04T01:51:15.878Z,12.10
2023-09-04T01:52:15.832Z,11.70
2023-09-04T01:53:15.836Z,11.80
2023-09-04T01:54:15.844Z,11.40
2023-09-04T01:55:15.789Z,12.00
2023-09-04T01:56:15.803Z,11.20
2023-09-04T01:57:15.768Z,11.80
2023-09-04T01:58:15.818Z,11.90
2023-09-04T01:59:15.793Z,11.20
2023-09-04T02:00:15.833Z,11.70
2023-09-04T02:01:16.012Z,11.40
2023-09-04T02:02:15.752Z,11.80
2023-09-04T02:03:15.931Z,10.90
2023-09-04T02:04:15.752Z,12.10
2023-09-04T02:05:15.815Z,12.10
2023-09-04T02:06:15.721Z,13.40
2023-09-04T02:07:15.730Z,11.60
2023-09-04T02:08:15.695Z,12.00
2023-09-04T02:09:15.682Z,13.90
2023-09-04T02:10:15.646Z,12.90
2023-09-04T02:11:15.662Z,12.20
2023-09-04T02:12:15.649Z,12.40
2023-09-04T02:13:15.604Z,15.40
2023-09-04T02:14:15.643Z,11.50
2023-09-04T02:15:15.581Z,12.40
2023-09-04T02:16:15.722Z,12.20
2023-09-04T02:17:15.592Z,13.40
2023-09-04T02:18:15.555Z,13.20
2023-09-04T02:19:15.533Z,11.80
2023-09-04T02:20:15.543Z,15.00
2023-09-04T02:21:15.514Z,14.00
2023-09-04T02:22:15.535Z,15.00
2023-09-04T02:23:15.516Z,13.70
2023-09-04T02:24:15.519Z,11.90
2023-09-04T02:25:15.493Z,14.70
2023-09-04T02:26:15.497Z,15.90
2023-09-04T02:27:15.450Z,13.20
2023-09-04T02:28:15.454Z,14.10
2023-09-04T02:29:15.438Z,14.80
2023-09-04T02:30:15.428Z,13.00
2023-09-04T02:31:15.476Z,13.80
2023-09-04T02:32:15.420Z,13.90
2023-09-04T02:33:15.484Z,14.20
2023-09-04T02:34:15.401Z,13.50
2023-09-04T02:35:15.366Z,14.20
2023-09-04T02:36:15.457Z,12.20
2023-09-04T02:37:15.359Z,14.20
2023-09-04T02:38:15.350Z,14.40
2023-09-04T02:39:15.331Z,13.00
2023-09-04T02:40:15.301Z,14.00
2023-09-04T02:41:15.297Z,13.00
2023-09-04T02:42:15.286Z,12.60
2023-09-04T02:43:15.298Z,16.10
2023-09-04T02:44:15.259Z,12.30
2023-09-04T02:45:15.303Z,12.80
2023-09-04T02:46:15.297Z,15.50
2023-09-04T02:47:15.252Z,13.90
2023-09-04T02:48:15.262Z,12.10
2023-09-04T02:49:15.230Z,13.80
2023-09-04T02:50:15.263Z,13.50
2023-09-04T02:51:15.210Z,13.80
2023-09-04T02:52:15.224Z,11.70
2023-09-04T02:53:15.172Z,13.60
2023-09-04T02:54:15.162Z,13.20
2023-09-04T02:55:15.153Z,12.80
2023-09-04T02:56:15.158Z,12.40
2023-09-04T02:57:15.137Z,12.90
2023-09-04T02:58:15.144Z,11.70
2023-09-04T02:59:15.118Z,13.30
2023-09-04T03:00:15.118Z,11.20
2023-09-04T03:01:15.213Z,11.50
2023-09-04T03:02:15.103Z,12.20
2023-09-04T03:03:15.131Z,12.50
2023-09-04T03:04:15.086Z,11.90
2023-09-04T03:05:15.013Z,12.90
2023-09-04T03:06:15.035Z,12.30
2023-09-04T03:07:15.030Z,12.00
2023-09-04T03:08:15.009Z,12.30
2023-09-04T03:09:15.038Z,13.00
2023-09-04T03:10:15.029Z,12.30
2023-09-04T03:11:15.027Z,11.60
2023-09-04T03:12:14.953Z,13.30
2023-09-04T03:13:15.006Z,11.40
2023-09-04T03:14:14.984Z,12.90
2023-09-04T03:15:14.952Z,12.00
2023-09-04T03:16:14.992Z,14.20
2023-09-04T03:17:14.935Z,13.80
2023-09-04T03:18:14.930Z,11.70
2023-09-04T03:19:14.886Z,11.80
2023-09-04T03:20:15.213Z,12.30
2023-09-04T03:21:14.863Z,11.50
2023-09-04T03:22:14.843Z,12.90
2023-09-04T03:23:14.863Z,11.90
2023-09-04T03:24:14.851Z,13.10
2023-09-04T03:25:14.819Z,12.70
2023-09-04T03:26:14.827Z,12.30
2023-09-04T03:27:14.799Z,12.90
2023-09-04T03:28:14.811Z,13.40
2023-09-04T03:29:14.763Z,12.00
2023-09-04T03:30:14.781Z,13.80
2023-09-04T03:31:14.812Z,12.40
2023-09-04T03:32:14.779Z,10.50
2023-09-04T03:33:14.731Z,13.00
2023-09-04T03:34:14.738Z,11.10
2023-09-04T03:35:14.716Z,12.50
2023-09-04T03:36:14.711Z,11.90
2023-09-04T03:37:14.706Z,14.90
2023-09-04T03:38:14.711Z,13.40
2023-09-04T03:39:14.682Z,12.00
2023-09-04T03:40:14.673Z,12.60
2023-09-04T03:41:14.636Z,14.50
2023-09-04T03:42:14.621Z,13.00
2023-09-04T03:43:14.666Z,12.30
2023-09-04T03:44:14.643Z,13.10
2023-09-04T03:45:14.651Z,12.60
2023-09-04T03:46:14.710Z,12.50
2023-09-04T03:47:14.587Z,12.50
2023-09-04T03:48:14.680Z,12.50
2023-09-04T03:49:14.565Z,13.70
2023-09-04T03:50:14.542Z,14.10
2023-09-04T03:51:14.583Z,13.70
2023-09-04T03:52:14.514Z,11.00
2023-09-04T03:53:14.501Z,13.80
2023-09-04T03:54:14.520Z,12.50
2023-09-04T03:55:14.510Z,12.60
2023-09-04T03:56:14.474Z,14.10
2023-09-04T03:57:14.499Z,12.20
2023-09-04T03:58:14.473Z,11.70
2023-09-04T03:59:14.465Z,12.20
2023-09-04T04:00:14.443Z,12.00
2023-09-04T04:01:14.496Z,13.80
2023-09-04T04:02:14.459Z,12.80
2023-09-04T04:03:16.779Z,12.40
2023-09-04T04:04:14.671Z,11.40
2023-09-04T04:05:14.393Z,13.30
2023-09-04T04:06:14.422Z,12.40
2023-09-04T04:07:14.384Z,12.80
2023-09-04T04:08:14.340Z,13.60
2023-09-04T04:09:14.338Z,11.80
2023-09-04T04:10:14.356Z,12.20
2023-09-04T04:11:14.344Z,13.90
2023-09-04T04:12:14.312Z,13.20
2023-09-04T04:13:14.320Z,14.00
2023-09-04T04:14:14.293Z,12.80
2023-09-04T04:15:14.285Z,12.40
2023-09-04T04:16:14.265Z,11.80
2023-09-04T04:17:14.244Z,13.00
2023-09-04T04:18:14.226Z,13.30
2023-09-04T04:19:14.236Z,11.00
2023-09-04T04:20:14.262Z,13.40
2023-09-04T04:21:14.274Z,11.50
2023-09-04T04:22:14.214Z,13.40
2023-09-04T04:23:14.185Z,13.40
2023-09-04T04:24:14.161Z,14.20
2023-09-04T04:25:14.193Z,13.10
2023-09-04T04:26:14.139Z,13.70
2023-09-04T04:27:14.115Z,12.10
2023-09-04T04:28:14.125Z,12.60
2023-09-04T04:29:14.101Z,15.20
2023-09-04T04:30:14.153Z,16.10
2023-09-04T04:31:14.117Z,23.70
2023-09-04T04:32:14.078Z,28.70
2023-09-04T04:33:14.071Z,33.80
2023-09-04T04:34:14.070Z,35.80
2023-09-04T04:35:13.997Z,37.70
2023-09-04T04:36:13.991Z,38.10
2023-09-04T04:37:13.985Z,41.60
2023-09-04T04:38:14.001Z,43.30
2023-09-04T04:39:13.956Z,44.50
2023-09-04T04:40:13.963Z,43.80
2023-09-04T04:41:13.948Z,47.40
2023-09-04T04:42:13.918Z,46.70
2023-09-04T04:43:13.905Z,49.10
2023-09-04T04:44:13.921Z,51.80
2023-09-04T04:45:13.914Z,53.20
2023-09-04T04:46:14.144Z,53.10
2023-09-04T04:47:13.893Z,54.60
2023-09-04T04:48:13.883Z,55.30
2023-09-04T04:49:13.853Z,52.80
2023-09-04T04:50:13.856Z,51.60
2023-09-04T04:51:13.843Z,49.90
2023-09-04T04:52:13.806Z,50.00
2023-09-04T04:53:13.816Z,43.30
2023-09-04T04:54:13.779Z,37.70
2023-09-04T04:55:13.804Z,33.10
2023-09-04T04:56:13.818Z,29.90
2023-09-04T04:57:13.750Z,26.60
2023-09-04T04:58:13.749Z,23.60
2023-09-04T04:59:13.773Z,21.00
2023-09-04T05:00:13.750Z,21.30
2023-09-04T05:01:13.769Z,21.00
2023-09-04T05:02:13.689Z,22.50
2023-09-04T05:03:13.738Z,25.20
2023-09-04T05:04:13.727Z,24.60
2023-09-04T05:05:13.663Z,27.50
2023-09-04T05:06:13.700Z,28.70
2023-09-04T05:07:13.669Z,34.50
2023-09-04T05:08:13.626Z,31.00
2023-09-04T05:09:13.677Z,32.60
2023-09-04T05:10:13.619Z,33.60
2023-09-04T05:11:13.600Z,34.20
2023-09-04T05:12:13.598Z,34.90
2023-09-04T05:13:13.617Z,34.80
2023-09-04T05:14:13.560Z,37.20
2023-09-04T05:15:14.365Z,34.90
2023-09-04T05:16:13.574Z,37.40
2023-09-04T05:17:13.905Z,36.70
2023-09-04T05:18:13.552Z,36.50
2023-09-04T05:19:13.571Z,37.60
2023-09-04T05:20:13.562Z,37.30
2023-09-04T05:21:13.474Z,38.10
2023-09-04T05:22:13.478Z,36.40
2023-09-04T05:23:13.475Z,35.40
2023-09-04T05:24:13.451Z,33.80
2023-09-04T05:25:13.476Z,36.10
2023-09-04T05:26:13.502Z,35.20
2023-09-04T05:27:13.416Z,31.70
2023-09-04T05:28:16.455Z,29.50
2023-09-04T05:29:13.488Z,29.50
2023-09-04T05:30:13.406Z,26.20
2023-09-04T05:31:13.439Z,27.10
2023-09-04T05:32:13.384Z,20.90
2023-09-04T05:33:13.389Z,24.10
2023-09-04T05:34:13.399Z,24.10
2023-09-04T05:35:17.062Z,20.60
2023-09-04T05:36:14.390Z,22.10
2023-09-04T05:37:13.316Z,19.70
2023-09-04T05:38:13.317Z,21.50
2023-09-04T05:39:13.287Z,18.00
2023-09-04T05:40:13.341Z,18.00
2023-09-04T05:41:13.273Z,17.90
2023-09-04T05:42:13.296Z,21.80
2023-09-04T05:43:13.310Z,24.70
2023-09-04T05:44:13.274Z,30.80
2023-09-04T05:45:13.214Z,28.20
2023-09-04T05:46:13.298Z,36.70
2023-09-04T05:47:13.262Z,36.90
2023-09-04T05:48:13.256Z,35.80
2023-09-04T05:49:13.192Z,39.50
2023-09-04T05:50:13.171Z,35.70
2023-09-04T05:51:13.182Z,34.80
2023-09-04T05:52:13.177Z,35.80
2023-09-04T05:53:13.156Z,34.80
2023-09-04T05:54:13.129Z,34.00
2023-09-04T05:55:13.104Z,29.30
2023-09-04T05:56:13.097Z,28.30
2023-09-04T05:57:13.104Z,21.50
2023-09-04T05:58:13.179Z,18.90
2023-09-04T05:59:13.093Z,16.70
2023-09-04T06:00:13.073Z,16.90
2023-09-04T06:01:13.058Z,18.20
2023-09-04T06:02:13.143Z,15.30
2023-09-04T06:03:13.077Z,18.40
2023-09-04T06:04:13.028Z,16.00
2023-09-04T06:05:13.089Z,13.90
2023-09-04T06:06:12.991Z,14.00
2023-09-04T06:07:13.007Z,11.80
2023-09-04T06:08:12.971Z,14.10
2023-09-04T06:09:12.984Z,12.00
2023-09-04T06:10:13.024Z,12.10
2023-09-04T06:11:12.930Z,13.30
2023-09-04T06:12:12.946Z,13.50
2023-09-04T06:13:12.931Z,12.00
2023-09-04T06:14:12.889Z,14.10
2023-09-04T06:15:12.882Z,13.40
2023-09-04T06:16:12.962Z,12.80
2023-09-04T06:17:12.852Z,14.00
2023-09-04T06:18:12.864Z,12.70
2023-09-04T06:19:12.837Z,11.10
2023-09-04T06:20:12.827Z,11.80
2023-09-04T06:21:12.851Z,14.30
2023-09-04T06:22:12.806Z,14.60
2023-09-04T06:23:12.849Z,10.90
2023-09-04T06:24:12.790Z,13.30
2023-09-04T06:25:12.764Z,14.10
2023-09-04T06:26:12.799Z,13.00
2023-09-04T06:27:12.748Z,14.30
2023-09-04T06:28:12.826Z,12.50
2023-09-04T06:29:12.757Z,12.20
2023-09-04T06:30:12.722Z,13.20
2023-09-04T06:31:12.787Z,13.30
2023-09-04T06:32:12.749Z,14.30
2023-09-04T06:33:12.713Z,12.70
2023-09-04T06:34:12.708Z,12.80
2023-09-04T06:35:12.702Z,12.70
2023-09-04T06:36:12.660Z,15.10
2023-09-04T06:37:12.681Z,14.60
2023-09-04T06:38:12.654Z,14.90
2023-09-04T06:39:12.644Z,17.30
2023-09-04T06:40:12.627Z,15.60
2023-09-04T06:41:12.657Z,17.20
2023-09-04T06:42:12.606Z,16.80
2023-09-04T06:43:12.624Z,17.80
2023-09-04T06:44:12.590Z,18.50
2023-09-04T06:45:12.610Z,19.70
2023-09-04T06:46:12.592Z,20.00
2023-09-04T06:47:12.545Z,21.20
2023-09-04T06:48:12.621Z,19.70
2023-09-04T06:49:12.551Z,21.40
2023-09-04T06:50:12.629Z,17.50
2023-09-04T06:51:12.539Z,17.90
2023-09-04T06:52:14.115Z,17.90
2023-09-04T06:53:12.537Z,17.00
2023-09-04T06:54:12.487Z,18.40
2023-09-04T06:55:12.451Z,19.60
2023-09-04T06:56:12.479Z,18.00
2023-09-04T06:57:12.468Z,19.20
2023-09-04T06:58:20.566Z,18.50
2023-09-04T06:59:19.591Z,19.70
2023-09-04T07:00:19.613Z,20.60
2023-09-04T07:01:12.426Z,19.90
2023-09-04T07:02:12.398Z,19.50
2023-09-04T07:03:12.450Z,17.90
2023-09-04T07:04:12.376Z,17.80
2023-09-04T07:05:14.278Z,20.40
2023-09-04T07:06:12.348Z,16.10
2023-09-04T07:07:12.331Z,17.80
2023-09-04T07:08:12.339Z,19.80
2023-09-04T07:09:19.991Z,18.10
2023-09-04T07:10:12.297Z,18.70
2023-09-04T07:11:12.314Z,19.60
2023-09-04T07:12:12.284Z,18.40
2023-09-04T07:13:21.571Z,20.30
2023-09-04T07:14:12.318Z,17.70
2023-09-04T07:15:12.270Z,16.60
2023-09-04T07:16:35.342Z,16.40
2023-09-04T07:17:22.460Z,16.00
2023-09-04T07:18:12.263Z,17.90
2023-09-04T07:19:20.458Z,16.10
2023-09-04T07:20:22.907Z,16.20
2023-09-04T07:21:12.210Z,16.40
2023-09-04T07:22:19.312Z,17.00
2023-09-04T07:23:23.279Z,15.90
2023-09-04T07:24:12.178Z,15.70
2023-09-04T07:25:12.462Z,16.90
2023-09-04T07:26:18.299Z,17.10
2023-09-04T07:27:12.149Z,16.30
2023-09-04T07:28:12.106Z,17.60
2023-09-04T07:29:12.088Z,16.40
2023-09-04T07:30:12.134Z,15.50
2023-09-04T07:31:12.126Z,16.70
2023-09-04T07:32:12.066Z,16.80
2023-09-04T07:33:12.094Z,15.70
2023-09-04T07:34:12.104Z,15.50
2023-09-04T07:35:12.055Z,13.50
2023-09-04T07:36:12.029Z,14.10
2023-09-04T07:37:12.069Z,13.30
2023-09-04T07:38:12.027Z,15.20
2023-09-04T07:39:12.036Z,13.50
2023-09-04T07:40:11.987Z,14.60
2023-09-04T07:41:11.973Z,15.40
2023-09-04T07:42:11.968Z,13.10
2023-09-04T07:43:12.057Z,13.50
2023-09-04T07:44:11.986Z,12.40
2023-09-04T07:45:11.918Z,12.60
2023-09-04T07:46:11.957Z,13.40
2023-09-04T07:47:11.912Z,14.40
2023-09-04T07:48:12.037Z,12.80
2023-09-04T07:49:11.899Z,11.90
2023-09-04T07:50:11.897Z,12.50
2023-09-04T07:51:27.422Z,14.60
2023-09-04T07:52:11.889Z,13.70
2023-09-04T07:53:11.895Z,12.90
2023-09-04T07:54:11.824Z,13.10
2023-09-04T07:55:11.899Z,12.90
2023-09-04T07:56:13.296Z,13.80
2023-09-04T07:57:11.789Z,13.40
2023-09-04T07:58:11.772Z,12.10
2023-09-04T07:59:11.836Z,13.10
2023-09-04T08:00:11.805Z,13.60
2023-09-04T08:01:11.813Z,13.80
2023-09-04T08:02:13.797Z,12.60
2023-09-04T08:03:11.838Z,12.80
2023-09-04T08:04:11.814Z,11.50
2023-09-04T08:05:11.744Z,12.20
2023-09-04T08:06:11.721Z,11.50
2023-09-04T08:07:11.679Z,13.20
2023-09-04T08:08:11.716Z,11.60
2023-09-04T08:09:11.670Z,10.40
2023-09-04T08:10:11.682Z,11.30
2023-09-04T08:11:12.399Z,10.80
2023-09-04T08:12:11.646Z,10.90
2023-09-04T08:13:13.958Z,12.20
2023-09-04T08:14:11.646Z,10.60
2023-09-04T08:15:11.655Z,10.50
2023-09-04T08:16:11.673Z,13.70
2023-09-04T08:17:11.574Z,13.50
2023-09-04T08:18:11.576Z,15.40
2023-09-04T08:19:12.177Z,11.70
2023-09-04T08:20:11.608Z,14.30
2023-09-04T08:21:11.645Z,11.60
2023-09-04T08:22:11.512Z,12.90
2023-09-04T08:23:11.537Z,11.90
2023-09-04T08:24:11.537Z,10.50
2023-09-04T08:25:11.517Z,12.70
2023-09-04T08:26:11.476Z,12.90
2023-09-04T08:27:11.504Z,11.90
2023-09-04T08:28:11.463Z,11.00
2023-09-04T08:29:11.475Z,12.50
2023-09-04T08:30:11.502Z,10.50
2023-09-04T08:31:11.453Z,10.30
2023-09-04T08:32:11.464Z,11.00
2023-09-04T08:33:11.506Z,10.40
2023-09-04T08:34:11.395Z,11.00
2023-09-04T08:35:11.385Z,9.50
2023-09-04T08:36:11.394Z,8.80
2023-09-04T08:37:11.357Z,12.20
2023-09-04T08:38:11.409Z,9.90
2023-09-04T08:39:11.414Z,11.70
2023-09-04T08:40:11.331Z,11.10
2023-09-04T08:41:11.335Z,10.90
2023-09-04T08:42:11.339Z,9.70
2023-09-04T08:43:11.313Z,9.60
2023-09-04T08:44:11.298Z,9.70
2023-09-04T08:45:11.272Z,9.70
2023-09-04T08:46:11.345Z,11.80
2023-09-04T08:47:11.286Z,12.30
2023-09-04T08:48:11.279Z,10.10
2023-09-04T08:50:36.432Z,9.30
2023-09-04T08:51:22.663Z,9.20
2023-09-04T08:52:22.688Z,9.50
2023-09-04T08:53:22.878Z,10.70
2023-09-04T08:54:22.651Z,10.80
2023-09-04T08:55:22.791Z,11.60
2023-09-04T08:56:22.610Z,8.20
2023-09-04T08:57:22.593Z,8.90
2023-09-04T08:58:22.599Z,9.60
2023-09-04T08:59:22.616Z,11.90
2023-09-04T09:00:22.693Z,9.90
2023-09-04T09:01:22.548Z,9.50
2023-09-04T09:02:22.594Z,8.70
2023-09-04T09:03:22.778Z,7.50
2023-09-04T09:04:22.540Z,8.90
2023-09-04T09:05:22.501Z,9.80
2023-09-04T09:06:24.421Z,9.60
2023-09-04T09:07:22.525Z,9.20
2023-09-04T09:08:22.482Z,8.70
2023-09-04T09:09:22.495Z,11.50
2023-09-04T09:10:22.527Z,9.20
2023-09-04T09:11:22.528Z,9.20
2023-09-04T09:12:22.440Z,9.60
2023-09-04T09:13:22.916Z,9.20
2023-09-04T09:14:22.435Z,10.00
2023-09-04T09:15:22.418Z,10.90
2023-09-04T09:16:22.518Z,9.10
2023-09-04T09:17:22.373Z,8.60
2023-09-04T09:18:22.374Z,9.10
2023-09-04T09:19:22.371Z,8.50
2023-09-04T09:20:22.984Z,9.80
2023-09-04T09:21:22.454Z,8.10
2023-09-04T09:22:22.370Z,9.00
2023-09-04T09:23:22.684Z,9.70
2023-09-04T09:24:26.129Z,10.50
2023-09-04T09:25:22.389Z,9.60
2023-09-04T09:26:22.333Z,7.60
2023-09-04T09:27:27.560Z,7.60
2023-09-04T09:28:22.363Z,8.80
2023-09-04T09:29:22.322Z,11.90
2023-09-04T09:30:22.261Z,11.10
2023-09-04T09:31:22.405Z,8.70
2023-09-04T09:32:22.307Z,9.80
2023-09-04T09:33:22.287Z,7.90
2023-09-04T09:34:22.261Z,9.10
2023-09-04T09:35:22.242Z,10.00
2023-09-04T09:36:22.200Z,12.20
2023-09-04T09:37:22.524Z,23.80
2023-09-04T09:38:22.479Z,16.80
2023-09-04T09:43:23.490Z,9.40
2023-09-04T09:44:24.388Z,9.80
2023-09-04T09:45:25.097Z,10.30
2023-09-04T09:46:24.413Z,14.90
2023-09-04T09:47:24.452Z,9.50
2023-09-04T09:48:28.155Z,9.70
2023-09-04T09:49:24.339Z,10.00
2023-09-04T09:50:25.573Z,9.30
2023-09-04T09:51:24.287Z,9.00
2023-09-04T09:52:24.309Z,10.30
2023-09-04T09:53:24.967Z,9.30
2023-09-04T09:54:24.329Z,8.70
2023-09-04T09:55:24.364Z,10.20
2023-09-04T09:56:24.241Z,8.50
2023-09-04T09:57:24.229Z,8.50
2023-09-04T09:58:24.457Z,8.20
2023-09-04T09:59:24.212Z,9.10
2023-09-04T10:00:24.283Z,8.80
2023-09-04T10:01:24.257Z,9.30
2023-09-04T10:02:24.270Z,9.00
2023-09-04T10:03:24.201Z,10.60
2023-09-04T10:04:24.172Z,8.00
2023-09-04T10:05:24.149Z,11.70
2023-09-04T10:06:24.141Z,14.00
2023-09-04T10:07:24.150Z,11.00
2023-09-04T10:08:24.512Z,10.30
2023-09-04T10:09:24.111Z,9.00
2023-09-04T10:10:24.259Z,9.00
2023-09-04T10:11:24.922Z,10.50
2023-09-04T10:12:24.168Z,9.10
2023-09-04T10:13:24.089Z,8.10
2023-09-04T10:14:24.569Z,9.80
2023-09-04T10:15:24.596Z,9.50
2023-09-04T10:16:24.052Z,9.40
2023-09-04T10:17:24.204Z,8.90
2023-09-04T10:18:24.281Z,8.50
2023-09-04T10:19:24.054Z,8.30
2023-09-04T10:20:24.009Z,8.60
2023-09-04T10:21:24.000Z,9.40
2023-09-04T10:22:23.971Z,9.90
2023-09-04T10:23:25.297Z,8.10
2023-09-04T10:24:24.038Z,8.80
2023-09-04T10:25:24.020Z,11.60
2023-09-04T10:26:23.957Z,9.70
2023-09-04T10:27:23.986Z,8.70
2023-09-04T10:28:37.822Z,8.30
2023-09-04T10:29:24.137Z,9.00
2023-09-04T10:30:23.972Z,7.80
2023-09-04T10:31:23.904Z,7.60
2023-09-04T10:32:23.999Z,10.00
2023-09-04T10:33:23.913Z,13.60
2023-09-04T10:34:24.245Z,12.50
2023-09-04T10:35:23.850Z,11.30
2023-09-04T10:36:23.833Z,10.40
2023-09-04T10:37:23.838Z,8.40
2023-09-04T10:38:23.997Z,8.90
2023-09-04T10:39:23.810Z,9.00
2023-09-04T10:40:23.828Z,8.90
2023-09-04T10:41:23.791Z,10.20
2023-09-04T10:42:23.912Z,9.00
2023-09-04T10:43:24.014Z,9.60
2023-09-04T10:44:23.784Z,8.20
2023-09-04T10:45:25.000Z,8.80
2023-09-04T10:46:23.820Z,9.50
2023-09-04T10:47:23.749Z,9.60
2023-09-04T10:48:23.902Z,7.70
2023-09-04T10:49:24.264Z,7.90
2023-09-04T10:50:23.690Z,7.40
2023-09-04T10:51:23.690Z,8.00
2023-09-04T10:52:25.431Z,7.10
2023-09-04T10:53:23.874Z,8.60
2023-09-04T10:54:23.691Z,7.90
2023-09-04T10:55:23.686Z,7.70
2023-09-04T10:56:23.612Z,7.90
2023-09-04T10:57:23.601Z,8.30
2023-09-04T10:58:23.811Z,8.80
2023-09-04T10:59:23.587Z,8.60
2023-09-04T11:00:23.705Z,6.90
2023-09-04T11:01:23.595Z,8.40
2023-09-04T11:02:23.575Z,7.60
2023-09-04T11:03:24.018Z,7.30
2023-09-04T11:04:23.620Z,8.40
2023-09-04T11:05:23.795Z,7.60
2023-09-04T11:06:23.630Z,8.20
2023-09-04T11:07:23.676Z,7.70
2023-09-04T11:08:23.698Z,7.50
2023-09-04T11:09:26.777Z,7.90
2023-09-04T11:11:23.716Z,8.80
2023-09-04T11:12:24.070Z,7.50
2023-09-04T11:13:25.277Z,13.60
2023-09-04T11:14:24.528Z,9.60
2023-09-04T11:15:23.473Z,10.50
2023-09-04T11:16:23.588Z,8.80
2023-09-04T11:17:23.754Z,7.50
2023-09-04T11:18:23.433Z,9.40
2023-09-04T11:19:23.475Z,8.40
2023-09-04T11:20:23.378Z,8.30
2023-09-04T11:21:23.477Z,6.40
2023-09-04T11:22:23.382Z,7.90
2023-09-04T11:23:23.686Z,7.60
2023-09-04T11:24:23.429Z,7.80
2023-09-04T11:25:23.385Z,8.60
2023-09-04T11:26:23.372Z,7.20
2023-09-04T11:27:23.415Z,8.10
2023-09-04T11:28:23.284Z,7.50
2023-09-04T11:29:23.323Z,7.60
2023-09-04T11:30:23.314Z,8.90
2023-09-04T11:31:23.338Z,7.30
2023-09-04T11:32:23.356Z,7.40
2023-09-04T11:33:24.120Z,8.10
2023-09-04T11:34:23.272Z,7.20
2023-09-04T11:35:23.279Z,8.00
2023-09-04T11:36:23.497Z,8.90
2023-09-04T11:37:23.404Z,8.20
2023-09-04T11:38:23.350Z,6.40
2023-09-04T11:39:23.194Z,9.40
2023-09-04T11:40:23.221Z,7.00
2023-09-04T11:41:23.214Z,9.10
2023-09-04T11:42:23.355Z,6.80
2023-09-04T11:43:23.590Z,7.70
2023-09-04T11:44:23.198Z,8.70
2023-09-04T11:45:26.426Z,9.20
2023-09-04T11:46:23.120Z,7.00
2023-09-04T11:47:23.133Z,6.90
2023-09-04T11:48:23.131Z,8.60
2023-09-04T11:49:23.106Z,7.20
2023-09-04T11:50:23.048Z,7.20
2023-09-04T11:51:23.027Z,8.30
2023-09-04T11:52:23.062Z,9.40
2023-09-04T11:53:23.020Z,9.90
2023-09-04T11:54:22.995Z,6.60
2023-09-04T11:55:23.068Z,6.80
2023-09-04T11:56:22.985Z,7.50
2023-09-04T11:57:22.974Z,7.10
2023-09-04T11:58:22.952Z,7.40
2023-09-04T11:59:22.960Z,7.40
2023-09-04T12:00:22.980Z,6.50
2023-09-04T12:01:22.991Z,6.50
2023-09-04T12:02:22.921Z,6.50
2023-09-04T12:03:23.238Z,7.60
2023-09-04T12:04:22.953Z,6.20
2023-09-04T12:05:22.873Z,7.00
2023-09-04T12:06:22.969Z,6.20
2023-09-04T12:07:22.862Z,6.70
2023-09-04T12:08:22.872Z,7.80
2023-09-04T12:09:22.881Z,9.60
2023-09-04T12:10:22.874Z,7.90
2023-09-04T12:11:22.880Z,8.50
2023-09-04T12:12:22.831Z,8.00
2023-09-04T12:13:22.818Z,7.80
2023-09-04T12:14:22.788Z,6.60
2023-09-04T12:15:22.777Z,7.40
2023-09-04T12:16:22.830Z,9.10
2023-09-04T12:17:22.839Z,8.70
2023-09-04T12:18:22.967Z,7.60
2023-09-04T12:19:22.745Z,7.40
2023-09-04T12:20:22.769Z,7.40
2023-09-04T12:21:22.716Z,7.10
2023-09-04T12:22:22.708Z,8.30
2023-09-04T12:23:22.701Z,7.00
2023-09-04T12:24:22.736Z,6.30
2023-09-04T12:25:22.742Z,7.00
2023-09-04T12:26:22.678Z,7.70
2023-09-04T12:27:22.641Z,8.40
2023-09-04T12:28:22.688Z,6.30
2023-09-04T12:29:22.633Z,8.80
2023-09-04T12:30:22.664Z,7.50
2023-09-04T12:31:22.655Z,7.10
2023-09-04T12:32:22.887Z,6.50
2023-09-04T12:33:22.637Z,6.20
2023-09-04T12:34:22.583Z,7.50
2023-09-04T12:35:22.643Z,6.60
2023-09-04T12:36:22.601Z,6.60
2023-09-04T12:37:22.555Z,7.40
2023-09-04T12:38:22.567Z,9.30
2023-09-04T12:39:22.520Z,5.50
2023-09-04T12:40:22.595Z,7.70
2023-09-04T12:41:22.523Z,8.10
2023-09-04T12:42:22.535Z,6.70
2023-09-04T12:43:22.494Z,7.40
2023-09-04T12:44:22.512Z,7.50
2023-09-04T12:45:22.540Z,7.80
2023-09-04T12:46:22.490Z,6.40
2023-09-04T12:47:22.488Z,6.90
2023-09-04T12:48:22.418Z,6.60
2023-09-04T12:49:22.423Z,8.00
2023-09-04T12:50:22.437Z,7.70
2023-09-04T12:51:22.405Z,7.40
2023-09-04T12:52:22.441Z,6.10
2023-09-04T12:53:22.377Z,7.30
2023-09-04T12:54:22.407Z,8.80
2023-09-04T12:55:22.350Z,7.90
2023-09-04T12:56:22.471Z,8.50
2023-09-04T12:57:22.341Z,7.30
2023-09-04T12:58:22.397Z,7.40
2023-09-04T12:59:22.312Z,6.80
2023-09-04T13:00:22.336Z,6.70
2023-09-04T13:01:22.318Z,8.30
2023-09-04T13:02:22.321Z,6.60
2023-09-04T13:03:22.308Z,7.70
2023-09-04T13:04:22.293Z,9.30
2023-09-04T13:05:22.280Z,7.80